This is the latest recevied weather packets stored in our database for station/object GAPWX. If no packets are shown the sender has not sent any weather packets the latest 10 day(s).
| Time | Temp. | Humidity | Pressure | Rain* | Wind** | Luminosity | Snow |
|---|---|---|---|---|---|---|---|
| 1778049551 | 7.22° C | 73% | 1016.8 hPa | 16.76 mm | - | - | - |
| 1778049249 | 7.22° C | 73% | 1016.7 hPa | 16.76 mm | - | - | - |
| 1778048947 | 7.22° C | 73% | 1016.7 hPa | 16.76 mm | - | - | - |
| 1778048645 | 7.22° C | 73% | 1016.6 hPa | 16.76 mm | - | - | - |
| 1778048345 | 7.22° C | 73% | 1016.6 hPa | 16.76 mm | - | - | - |
| 1778048042 | 7.22° C | 73% | 1016.5 hPa | 16.76 mm | - | - | - |
| 1778047440 | 7.22° C | 73% | 1016.6 hPa | 16.76 mm | - | - | - |
| 1778046840 | 7.22° C | 73% | 1016.6 hPa | 16.76 mm | - | - | - |
| 1778046234 | 7.22° C | 73% | 1016.6 hPa | 16.76 mm | - | - | - |
| 1778045332 | 7.22° C | 72% | 1016.4 hPa | 16.76 mm | - | - | - |
| 1778045029 | 7.22° C | 72% | 1016.3 hPa | 16.76 mm | - | - | - |
| 1778044729 | 6.67° C | 72% | 1016.3 hPa | 16.76 mm | - | - | - |
| 1778044427 | 6.67° C | 72% | 1016.3 hPa | 16.76 mm | - | - | - |
| 1778043524 | 7.22° C | 72% | 1016.2 hPa | 16.76 mm | - | - | - |
| 1778042619 | 7.22° C | 71% | 1016 hPa | 16.76 mm | - | - | - |
| 1778041113 | 7.22° C | 70% | 1015.9 hPa | 16.76 mm | - | - | - |
| 1778038098 | 8.33° C | 68% | 1015.4 hPa | 16.76 mm | - | - | - |
| 1778037196 | 8.89° C | 67% | 1015.2 hPa | 16.76 mm | - | - | - |
| 1778036292 | 9.44° C | 67% | 1015 hPa | 16.76 mm | - | - | - |
| 1778035993 | 10° C | 66% | 1014.8 hPa | 16.76 mm | - | - | - |
| 1778035386 | 10° C | 65% | 1014.9 hPa | 16 mm | - | - | - |
| 1778033277 | 10.56° C | 64% | 1014.7 hPa | 16 mm | - | - | - |
| 1778032975 | 11.11° C | 64% | 1014.9 hPa | 16 mm | - | - | - |
| 1778032071 | 11.67° C | 63% | 1014.6 hPa | 16 mm | - | - | - |
| 1778031167 | 12.22° C | 62% | 1014.4 hPa | 16 mm | - | - | - |
* Rain since midnight (hover to see other rain measurements)
** Current wind speed in m/s (hover to see current wind gust speed)